Time;durP1;ratioP1;P1;durP2;ratioP2;P2;SDS_P1;SDS_P2;PMS_P1;PMS_P2;Temp;Humidity;BMP_temperature;BMP_pressure;BME280_temperature;BME280_humidity;BME280_pressure;Samples;Min_cycle;Max_cycle;Signal;HPM_P1;HPM_P2
2023/03/20 00:00:24;;;;;;;;;;;;;;;;;;5053099;28;19909;-74
2023/03/20 00:02:51;;;;;;;;;;;;;;;;;;5053298;28;19908;-75
2023/03/20 00:05:17;;;;;;;;;;;;;;;;;;5051484;28;19992;-73
2023/03/20 00:07:43;;;;;;;;;;;;;;;;;;5053027;28;20011;-73
2023/03/20 00:10:09;;;;;;;;;;;;;;;;;;5052994;28;19956;-75
2023/03/20 00:12:35;;;;;;;;;;;;;;;;;;5053084;28;19920;-74
2023/03/20 00:15:01;;;;;;;;;;;;;;;;;;5055511;28;19908;-74
2023/03/20 00:17:27;;;;;;;;;;;;;;;;;;5056628;28;20335;-74
2023/03/20 00:19:53;;;;;;;;;;;;;;;;;;5056606;28;20396;-75
2023/03/20 00:22:19;;;;;;;;;;;;;;;;;;5056506;28;19995;-73
2023/03/20 00:24:45;;;;;;;;;;;11.10;99.90;;;;;;5056899;28;19909;-75
2023/03/20 00:27:14;;;;;;;;;;;11.00;99.90;;;;;;5056429;28;19916;-74
2023/03/20 00:29:40;;;;;;;;;;;11.00;99.90;;;;;;5056377;28;19908;-73
2023/03/20 00:32:10;;;;;;;;;;;11.00;99.90;;;;;;5071644;28;20436;-73
2023/03/20 00:34:36;;;;;;;;;;;11.00;99.90;;;;;;5071385;28;20000;-75
2023/03/20 00:37:02;;;;;;;;;;;11.00;99.90;;;;;;5056270;28;20003;-74
2023/03/20 00:39:28;;;;;;;;;;;10.70;99.90;;;;;;5056127;28;20008;-73
2023/03/20 00:41:55;;;;;;;;;;;10.70;99.90;;;;;;5056126;28;20345;-74
2023/03/20 00:44:23;;;;;;;;;;;10.60;99.90;;;;;;5071568;28;19992;-74
2023/03/20 00:46:59;;;;;;;;;;;10.60;99.90;;;;;;5056211;28;19909;-74
2023/03/20 00:49:26;;;;;;;;;;;10.70;99.90;;;;;;5056068;28;19915;-73
2023/03/20 00:51:53;;;;;;;;;;;10.50;99.90;;;;;;5054577;28;19917;-74
2023/03/20 00:54:18;;;;;;;;;;;10.50;99.90;;;;;;5055911;28;19958;-74
2023/03/20 00:57:00;;;;;;;;;;;10.50;99.90;;;;;;5056240;28;19909;-73
2023/03/20 00:59:28;;;;;;;;;;;10.70;99.90;;;;;;5055665;28;19909;-72
2023/03/20 01:01:53;;;;;;;;;;;10.50;99.90;;;;;;5055559;28;19916;-73
2023/03/20 01:04:20;;;;;;;;;;;10.40;99.90;;;;;;5055790;28;20322;-73
2023/03/20 01:06:45;;;;;;;;;;;10.40;99.90;;;;;;5055707;28;19916;-73
2023/03/20 01:09:11;;;;;;;;;;;10.30;99.90;;;;;;5055855;28;19909;-73
2023/03/20 01:11:37;;;;;;;;;;;10.20;99.90;;;;;;5055680;28;19916;-73
2023/03/20 01:14:04;;;;;;;;;;;10.20;99.90;;;;;;5055750;28;19909;-74
2023/03/20 01:16:30;;;;;;;;;;;9.90;99.90;;;;;;5055463;28;19955;-74
2023/03/20 01:18:56;;;;;;;;;;;9.90;99.90;;;;;;5055437;28;19909;-74
2023/03/20 01:21:21;;;;;;;;;;;10.00;99.90;;;;;;5055426;28;19908;-73
2023/03/20 01:23:48;;;;;;;;;;;10.00;99.90;;;;;;5055328;28;20413;-73
2023/03/20 01:26:26;;;;;;;;;;;10.10;99.90;;;;;;5054580;28;20010;-73
2023/03/20 01:28:51;;;;;;;;;;;9.90;99.90;;;;;;5055219;28;19916;-73
2023/03/20 01:31:17;;;;;;;;;;;10.10;99.90;;;;;;5055114;28;20287;-75
2023/03/20 01:33:42;;;;;;;;;;;10.10;99.90;;;;;;5055185;28;19919;-75
2023/03/20 01:36:12;;;;;;;;;;;10.10;99.90;;;;;;5055458;28;19935;-73
2023/03/20 01:38:38;;;;;;;;;;;10.20;99.90;;;;;;5055254;28;19913;-74
2023/03/20 01:41:04;;;;;;;;;;;10.20;99.90;;;;;;5054545;28;19921;-74
2023/03/20 01:43:29;;;;;;;;;;;10.20;99.90;;;;;;5054996;28;19912;-74
2023/03/20 01:46:05;;;;;;;;;;;10.20;99.90;;;;;;5055068;28;19916;-74
2023/03/20 01:48:36;;;;;;;;;;;10.10;99.90;;;;;;5055032;28;19913;-75
2023/03/20 01:51:02;;;;;;;;;;;10.20;99.90;;;;;;5069902;28;19909;-73
2023/03/20 01:53:28;;;;;;;;;;;10.20;99.90;;;;;;5054796;28;19908;-74
2023/03/20 01:55:55;;;;;;;;;;;10.30;99.90;;;;;;5054774;28;20270;-74
2023/03/20 01:58:32;;;;;;;;;;;10.50;99.90;;;;;;5054914;28;19908;-73
2023/03/20 02:00:58;;;;;;;;;;;10.70;99.90;;;;;;5055309;28;19909;-74
2023/03/20 02:03:23;;;;;;;;;;;10.70;99.90;;;;;;5054669;28;20392;-72
2023/03/20 02:05:49;;;;;;;;;;;10.60;99.90;;;;;;5054783;28;20375;-74
2023/03/20 02:08:35;;;;;;;;;;;10.60;99.90;;;;;;5054525;28;20338;-73
2023/03/20 02:11:01;;;;;;;;;;;10.50;99.90;;;;;;5052546;28;20357;-73
2023/03/20 02:13:27;;;;;;;;;;;10.50;99.90;;;;;;5054420;28;19934;-73
2023/03/20 02:16:04;;;;;;;;;;;10.30;99.90;;;;;;5054606;28;19995;-73
2023/03/20 02:18:30;;;;;;;;;;;10.20;99.90;;;;;;5054549;28;20420;-75
2023/03/20 02:20:56;;;;;;;;;;;10.30;99.90;;;;;;5054427;28;19909;-73
2023/03/20 02:23:27;;;;;;;;;;;10.30;99.90;;;;;;5054245;28;20464;-74
2023/03/20 02:26:05;;;;;;;;;;;10.20;99.90;;;;;;5054154;28;19952;-73
2023/03/20 02:28:32;;;;;;;;;;;10.10;99.90;;;;;;5054248;28;19908;-74
2023/03/20 02:31:06;;;;;;;;;;;10.00;99.90;;;;;;5054039;28;19940;-75
2023/03/20 02:33:38;;;;;;;;;;;10.10;99.90;;;;;;5054252;28;19920;-73
2023/03/20 02:36:10;;;;;;;;;;;10.10;99.90;;;;;;5054055;28;19996;-73
2023/03/20 02:38:41;;;;;;;;;;;10.00;99.90;;;;;;5053044;28;19909;-73
2023/03/20 02:41:25;;;;;;;;;;;10.00;99.90;;;;;;5053573;28;20403;-73
2023/03/20 02:44:03;;;;;;;;;;;9.90;99.90;;;;;;5054030;28;19909;-74
2023/03/20 02:46:47;;;;;;;;;;;9.90;99.90;;;;;;5053971;28;19909;-73
2023/03/20 02:49:13;;;;;;;;;;;9.90;99.90;;;;;;5054048;28;19917;-73
2023/03/20 02:51:51;;;;;;;;;;;9.90;99.90;;;;;;5053743;28;19935;-74
2023/03/20 02:54:29;;;;;;;;;;;9.90;99.90;;;;;;5053928;28;19909;-74
2023/03/20 02:57:00;;;;;;;;;;;9.90;99.90;;;;;;5053648;28;19909;-74
2023/03/20 02:59:37;;;;;;;;;;;9.80;99.90;;;;;;5054087;28;19916;-74
2023/03/20 03:02:06;;;;;;;;;;;9.70;99.90;;;;;;5053989;28;20400;-73
2023/03/20 03:04:35;;;;;;;;;;;9.70;99.90;;;;;;5053733;28;19915;-74
2023/03/20 03:07:02;;;;;;;;;;;9.70;99.90;;;;;;5054104;28;19948;-75
2023/03/20 03:09:47;;;;;;;;;;;9.70;99.90;;;;;;5053946;28;20026;-75
2023/03/20 03:12:15;;;;;;;;;;;9.70;99.90;;;;;;5053551;28;19970;-74
2023/03/20 03:15:10;;;;;;;;;;;9.60;99.90;;;;;;5053536;28;19912;-74
2023/03/20 03:17:36;;;;;;;;;;;9.50;99.90;;;;;;5035915;28;19909;-74
2023/03/20 03:20:06;;;;;;;;;;;9.40;99.90;;;;;;5068964;28;19908;-74
2023/03/20 03:22:33;;;;;;;;;;;9.10;99.90;;;;;;5053677;28;20339;-75
2023/03/20 03:24:58;;;;;;;;;;;9.00;99.90;;;;;;5053872;28;19935;-74
2023/03/20 03:27:35;;;;;;;;;;;9.00;99.90;;;;;;5053646;28;19908;-74
2023/03/20 03:30:04;;;;;;;;;;;9.00;99.90;;;;;;5053406;28;20381;-75
2023/03/20 03:32:40;;;;;;;;;;;9.10;99.90;;;;;;5053453;28;19995;-74
2023/03/20 03:35:05;;;;;;;;;;;9.10;99.90;;;;;;5053385;28;19908;-74
2023/03/20 03:37:43;;;;;;;;;;;9.10;99.90;;;;;;5053340;28;19909;-73
2023/03/20 03:40:24;;;;;;;;;;;9.10;99.90;;;;;;5053238;28;20301;-74
2023/03/20 03:42:49;;;;;;;;;;;9.20;99.90;;;;;;5053261;28;19909;-73
2023/03/20 03:45:17;;;;;;;;;;;9.10;99.90;;;;;;5053282;28;20297;-74
2023/03/20 03:47:45;;;;;;;;;;;9.10;99.90;;;;;;5053203;28;19909;-74
2023/03/20 03:50:31;;;;;;;;;;;9.10;99.90;;;;;;5056255;28;20339;-74
2023/03/20 03:52:59;;;;;;;;;;;9.10;99.90;;;;;;5056365;28;20384;-73
2023/03/20 03:55:26;;;;;;;;;;;9.10;99.90;;;;;;5057177;28;19986;-74
2023/03/20 03:57:57;;;;;;;;;;;9.20;99.90;;;;;;5057043;28;20028;-74
2023/03/20 04:00:24;;;;;;;;;;;9.10;99.90;;;;;;5057205;28;19916;-73
2023/03/20 04:02:51;;;;;;;;;;;9.30;99.90;;;;;;5056949;28;19954;-73
2023/03/20 04:05:18;;;;;;;;;;;9.40;99.90;;;;;;5056902;28;20388;-74
2023/03/20 04:07:45;;;;;;;;;;;9.40;99.90;;;;;;5056707;28;19909;-73
2023/03/20 04:10:11;;;;;;;;;;;9.40;99.90;;;;;;5072181;28;19916;-73
2023/03/20 04:12:37;;;;;;;;;;;9.20;99.90;;;;;;5056456;28;20373;-73
2023/03/20 04:15:04;;;;;;;;;;;9.30;99.90;;;;;;5056997;28;20362;-73
2023/03/20 04:17:30;;;;;;;;;;;9.20;99.90;;;;;;5056900;28;19909;-72
2023/03/20 04:19:55;;;;;;;;;;;9.00;99.90;;;;;;5057144;28;19979;-73
2023/03/20 04:22:21;;;;;;;;;;;9.10;99.90;;;;;;5056515;28;19908;-75
2023/03/20 04:24:47;;;;;;;;;;;9.00;99.90;;;;;;5056488;28;19908;-74
2023/03/20 04:27:12;;;;;;;;;;;8.90;99.90;;;;;;5056477;28;20067;-74
2023/03/20 04:29:38;;;;;;;;;;;8.90;99.90;;;;;;5056488;28;19909;-74
2023/03/20 04:32:03;;;;;;;;;;;8.80;99.90;;;;;;5056533;28;19913;-74
2023/03/20 04:34:29;;;;;;;;;;;8.70;99.90;;;;;;5071715;28;19924;-74
2023/03/20 04:36:55;;;;;;;;;;;8.70;99.90;;;;;;5056268;28;20369;-74
2023/03/20 04:39:21;;;;;;;;;;;8.60;99.90;;;;;;5071369;28;19917;-73
2023/03/20 04:41:46;;;;;;;;;;;8.60;99.90;;;;;;5056538;28;19913;-74
2023/03/20 04:44:12;;;;;;;;;;;8.60;99.90;;;;;;5056328;28;19928;-73
2023/03/20 04:46:37;;;;;;;;;;;8.50;99.90;;;;;;5056089;28;20292;-73
2023/03/20 04:49:03;;;;;;;;;;;8.40;99.90;;;;;;5056020;28;19915;-74
2023/03/20 04:51:29;;;;;;;;;;;8.40;99.90;;;;;;5056003;28;19920;-74
2023/03/20 04:53:54;;;;;;;;;;;8.30;99.90;;;;;;5055963;28;19908;-76
2023/03/20 04:56:20;;;;;;;;;;;8.30;99.90;;;;;;5055838;28;19915;-74
2023/03/20 04:58:45;;;;;;;;;;;8.20;99.90;;;;;;5055906;28;19960;-73
2023/03/20 05:01:11;;;;;;;;;;;8.20;99.90;;;;;;5054488;28;19944;-74
2023/03/20 05:03:38;;;;;;;;;;;8.20;99.90;;;;;;5055886;28;20297;-73
2023/03/20 05:06:04;;;;;;;;;;;8.30;99.90;;;;;;5055741;28;19913;-75
2023/03/20 05:08:30;;;;;;;;;;;8.40;99.90;;;;;;5055712;28;20385;-74
2023/03/20 05:10:56;;;;;;;;;;;8.50;99.90;;;;;;5055960;28;19909;-73
2023/03/20 05:13:21;;;;;;;;;;;8.30;99.90;;;;;;5055505;28;19916;-74
2023/03/20 05:15:47;;;;;;;;;;;8.20;99.90;;;;;;5055586;28;19915;-74
2023/03/20 05:18:12;;;;;;;;;;;8.20;99.90;;;;;;5055626;28;19917;-74
2023/03/20 05:20:38;;;;;;;;;;;8.30;99.90;;;;;;5055713;28;19915;-74
2023/03/20 05:23:04;;;;;;;;;;;8.40;99.90;;;;;;5070773;28;20369;-74
2023/03/20 05:25:30;;;;;;;;;;;8.40;99.90;;;;;;5055416;28;19909;-73
2023/03/20 05:27:55;;;;;;;;;;;8.40;99.90;;;;;;5055362;28;19916;-73
2023/03/20 05:30:21;;;;;;;;;;;8.40;99.90;;;;;;5055326;28;19909;-74
2023/03/20 05:32:51;;;;;;;;;;;8.50;99.90;;;;;;5055584;28;19960;-73
2023/03/20 05:35:16;;;;;;;;;;;8.50;99.90;;;;;;5055163;28;19916;-74
2023/03/20 05:37:42;;;;;;;;;;;8.40;99.90;;;;;;5055122;28;19912;-73
2023/03/20 05:40:10;;;;;;;;;;;8.30;99.90;;;;;;5054886;28;19928;-75
2023/03/20 05:42:35;;;;;;;;;;;8.30;99.90;;;;;;5054964;28;19908;-74
2023/03/20 05:45:01;;;;;;;;;;;8.50;99.90;;;;;;5055190;28;19915;-75
2023/03/20 05:47:26;;;;;;;;;;;8.50;99.90;;;;;;5054947;28;19909;-73
2023/03/20 05:49:53;;;;;;;;;;;8.50;99.90;;;;;;5054877;28;20039;-74
2023/03/20 05:52:18;;;;;;;;;;;8.60;99.90;;;;;;5054752;28;19913;-73
2023/03/20 05:54:44;;;;;;;;;;;8.60;99.90;;;;;;5054992;28;19916;-74
2023/03/20 05:57:10;;;;;;;;;;;8.60;99.90;;;;;;5054846;28;19909;-73
2023/03/20 05:59:35;;;;;;;;;;;8.70;99.90;;;;;;5054735;28;20335;-74
2023/03/20 06:02:01;;;;;;;;;;;8.80;99.90;;;;;;5054732;28;19948;-74
2023/03/20 06:04:26;;;;;;;;;;;8.90;99.90;;;;;;5054731;28;19909;-73
2023/03/20 06:06:52;;;;;;;;;;;8.90;99.90;;;;;;5054544;28;19912;-73
2023/03/20 06:09:18;;;;;;;;;;;8.80;99.90;;;;;;5054374;28;19988;-74
2023/03/20 06:11:43;;;;;;;;;;;8.70;99.90;;;;;;5054135;28;20004;-74
2023/03/20 06:14:09;;;;;;;;;;;8.60;99.90;;;;;;5054584;28;19977;-73
2023/03/20 06:16:35;;;;;;;;;;;8.50;99.90;;;;;;5054460;28;19909;-74
2023/03/20 06:19:00;;;;;;;;;;;8.50;99.90;;;;;;5054502;28;20479;-74
2023/03/20 06:21:26;;;;;;;;;;;8.40;99.90;;;;;;5054633;28;19958;-73
2023/03/20 06:23:53;;;;;;;;;;;8.50;99.90;;;;;;5054281;28;20305;-73
2023/03/20 06:26:19;;;;;;;;;;;8.50;99.90;;;;;;5054469;28;19909;-75
2023/03/20 06:28:45;;;;;;;;;;;8.60;99.90;;;;;;5054371;28;20373;-74
2023/03/20 06:31:11;;;;;;;;;;;8.70;99.90;;;;;;5054105;28;19909;-74
2023/03/20 06:33:37;;;;;;;;;;;8.70;99.90;;;;;;5054063;28;19909;-75
2023/03/20 06:36:03;;;;;;;;;;;8.80;99.90;;;;;;5054080;28;19920;-74
2023/03/20 06:38:28;;;;;;;;;;;8.90;99.90;;;;;;5054044;28;19909;-76
2023/03/20 06:40:54;;;;;;;;;;;9.00;99.90;;;;;;5053564;28;20463;-73
2023/03/20 06:43:20;;;;;;;;;;;9.10;99.90;;;;;;5054004;28;19952;-74
2023/03/20 06:45:45;;;;;;;;;;;9.20;99.90;;;;;;5053770;28;20392;-73
2023/03/20 06:48:11;;;;;;;;;;;9.30;99.90;;;;;;5054092;28;19910;-73
2023/03/20 06:50:36;;;;;;;;;;;9.20;99.90;;;;;;5053898;28;19954;-73
2023/03/20 06:53:02;;;;;;;;;;;9.30;99.90;;;;;;5053759;28;20278;-74
2023/03/20 06:55:28;;;;;;;;;;;9.40;99.90;;;;;;5054088;28;19909;-74
2023/03/20 06:57:54;;;;;;;;;;;9.50;99.90;;;;;;5053683;28;19912;-74
2023/03/20 07:00:20;;;;;;;;;;;9.60;99.90;;;;;;5053977;28;19909;-73
2023/03/20 07:02:46;;;;;;;;;;;9.70;99.90;;;;;;5053694;28;19909;-73
2023/03/20 07:05:12;;;;;;;;;;;9.70;99.90;;;;;;5053652;28;20399;-74
2023/03/20 07:07:37;;;;;;;;;;;9.80;99.90;;;;;;5054010;28;19909;-72
2023/03/20 07:10:03;;;;;;;;;;;9.90;99.90;;;;;;5053911;28;19917;-75
2023/03/20 07:12:29;;;;;;;;;;;10.10;99.90;;;;;;5053516;28;19913;-73
2023/03/20 07:14:55;;;;;;;;;;;10.00;99.90;;;;;;5053258;28;19951;-74
2023/03/20 07:17:21;;;;;;;;;;;10.20;99.90;;;;;;5053760;28;19920;-75
2023/03/20 07:19:46;;;;;;;;;;;10.40;99.90;;;;;;5053817;28;19909;-74
2023/03/20 07:22:19;;;;;;;;;;;10.60;99.90;;;;;;5053456;28;20381;-74
2023/03/20 07:24:45;;;;;;;;;;;10.90;99.90;;;;;;5055954;28;19909;-73
2023/03/20 07:27:11;;;;;;;;;;;11.00;99.90;;;;;;5057799;28;20008;-74
2023/03/20 07:29:36;;;;;;;;;;;11.00;99.90;;;;;;5057904;28;19909;-74
2023/03/20 07:32:02;;;;;;;;;;;11.10;99.90;;;;;;5057591;28;20441;-75
2023/03/20 07:34:28;;;;;;;;;;;11.20;99.90;;;;;;5057568;28;19908;-74
2023/03/20 07:36:53;;;;;;;;;;;11.30;99.90;;;;;;5057426;28;20370;-74
2023/03/20 07:39:19;;;;;;;;;;;11.60;99.90;;;;;;5057545;28;19924;-74
2023/03/20 07:41:45;;;;;;;;;;;11.60;99.90;;;;;;5057286;28;20395;-72
2023/03/20 07:44:10;;;;;;;;;;;12.00;99.90;;;;;;5057359;28;20408;-73
2023/03/20 07:46:36;;;;;;;;;;;12.50;99.90;;;;;;5057281;28;19909;-74
2023/03/20 07:49:01;;;;;;;;;;;13.10;99.90;;;;;;5057196;28;19987;-74
2023/03/20 07:51:27;;;;;;;;;;;13.60;99.90;;;;;;5057046;28;19951;-74
2023/03/20 07:53:53;;;;;;;;;;;14.30;99.90;;;;;;5057071;28;19913;-75
2023/03/20 07:56:20;;;;;;;;;;;15.20;99.90;;;;;;5057007;28;19909;-74
2023/03/20 07:58:45;;;;;;;;;;;15.20;99.90;;;;;;5057244;28;19913;-75
2023/03/20 08:01:11;;;;;;;;;;;15.00;85.30;;;;;;5056971;28;20373;-75
2023/03/20 08:03:38;;;;;;;;;;;15.80;97.40;;;;;;5057085;28;19999;-75
2023/03/20 08:06:06;;;;;;;;;;;16.40;76.30;;;;;;5056909;28;19908;-74
2023/03/20 08:08:32;;;;;;;;;;;16.50;55.40;;;;;;5056881;28;20024;-75
2023/03/20 08:10:57;;;;;;;;;;;16.20;46.60;;;;;;5056823;28;19948;-73
2023/03/20 08:13:23;;;;;;;;;;;16.00;61.30;;;;;;5056730;28;19917;-74
2023/03/20 08:15:48;;;;;;;;;;;16.60;67.80;;;;;;5056744;28;20369;-75
2023/03/20 08:18:14;;;;;;;;;;;15.90;65.70;;;;;;5056857;28;19909;-75
2023/03/20 08:20:40;;;;;;;;;;;15.10;94.70;;;;;;5056939;28;19991;-76
2023/03/20 08:23:06;;;;;;;;;;;14.90;99.90;;;;;;5056749;28;19932;-75
2023/03/20 08:25:33;;;;;;;;;;;15.30;99.90;;;;;;5056496;28;20385;-73
2023/03/20 08:28:00;;;;;;;;;;;15.80;95.00;;;;;;5056475;28;19947;-75
2023/03/20 08:30:25;;;;;;;;;;;15.90;84.30;;;;;;5071834;28;19916;-75
2023/03/20 08:32:52;;;;;;;;;;;15.40;96.30;;;;;;5055111;28;20270;-74
2023/03/20 08:35:17;;;;;;;;;;;15.00;99.90;;;;;;5056306;28;19916;-74
2023/03/20 08:37:44;;;;;;;;;;;15.00;99.90;;;;;;5056315;28;19913;-73
2023/03/20 08:40:10;;;;;;;;;;;15.30;99.90;;;;;;5056196;28;19925;-74
2023/03/20 08:42:36;;;;;;;;;;;15.40;98.60;;;;;;5056487;28;20042;-75
2023/03/20 08:45:03;;;;;;;;;;;15.20;98.60;;;;;;5055665;28;20199;-75
2023/03/20 08:47:29;;;;;;;;;;;14.90;99.90;;;;;;5056132;28;20348;-74
2023/03/20 08:49:55;;;;;;;;;;;15.20;99.90;;;;;;5056066;28;19951;-74
2023/03/20 08:52:20;;;;;;;;;;;14.80;99.90;;;;;;5056216;28;20369;-75
2023/03/20 08:54:46;;;;;;;;;;;14.80;99.90;;;;;;5056097;28;19908;-74
2023/03/20 08:57:11;;;;;;;;;;;15.10;99.90;;;;;;5055885;28;19916;-74
2023/03/20 08:59:37;;;;;;;;;;;14.80;99.90;;;;;;5055909;28;19909;-75
2023/03/20 09:02:03;;;;;;;;;;;14.80;99.90;;;;;;5055900;28;19913;-75
2023/03/20 09:04:28;;;;;;;;;;;15.10;99.90;;;;;;5055824;28;20389;-74
2023/03/20 09:06:55;;;;;;;;;;;15.10;99.90;;;;;;5055791;28;19916;-73
2023/03/20 09:09:25;;;;;;;;;;;15.20;99.90;;;;;;5056004;28;19916;-74
2023/03/20 09:11:51;;;;;;;;;;;15.00;99.90;;;;;;5055967;28;20365;-74
2023/03/20 09:14:16;;;;;;;;;;;15.20;99.90;;;;;;5055807;28;19916;-74
2023/03/20 09:16:42;;;;;;;;;;;14.90;99.90;;;;;;5055584;28;20296;-73
2023/03/20 09:19:08;;;;;;;;;;;14.90;99.90;;;;;;5055550;28;19915;-73
2023/03/20 09:21:33;;;;;;;;;;;15.10;99.90;;;;;;5055613;28;19974;-74
2023/03/20 09:23:59;;;;;;;;;;;15.90;99.90;;;;;;5055545;28;20323;-75
2023/03/20 09:26:24;;;;;;;;;;;16.10;92.50;;;;;;5055356;28;19909;-74
2023/03/20 09:28:50;;;;;;;;;;;16.30;57.30;;;;;;5055336;28;19958;-75
2023/03/20 09:31:15;;;;;;;;;;;15.80;78.00;;;;;;5055601;28;20357;-74
2023/03/20 09:33:41;;;;;;;;;;;15.90;83.00;;;;;;5055230;28;19909;-75
2023/03/20 09:36:10;;;;;;;;;;;15.80;70.80;;;;;;5055154;28;19915;-75
2023/03/20 09:38:36;;;;;;;;;;;16.30;60.10;;;;;;5055145;28;20281;-75
2023/03/20 09:41:02;;;;;;;;;;;17.30;47.90;;;;;;5053402;28;19928;-73
2023/03/20 09:43:44;;;;;;;;;;;18.40;7.50;;;;;;5055134;28;19912;-75
2023/03/20 09:46:19;;;;;;;;;;;19.60;1.00;;;;;;5054745;28;19916;-75
2023/03/20 09:48:56;;;;;;;;;;;19.50;1.00;;;;;;5055329;28;19909;-73
2023/03/20 09:51:28;;;;;;;;;;;18.80;1.00;;;;;;5054926;28;19975;-74
2023/03/20 09:54:01;;;;;;;;;;;19.10;1.00;;;;;;5053615;28;20054;-75
2023/03/20 09:56:28;;;;;;;;;;;18.50;1.00;;;;;;5054748;28;20281;-73
2023/03/20 09:58:55;;;;;;;;;;;18.30;1.10;;;;;;5055167;28;20421;-74
2023/03/20 10:01:22;;;;;;;;;;;18.70;1.00;;;;;;5055057;28;20031;-74
2023/03/20 10:03:48;;;;;;;;;;;18.30;1.00;;;;;;5054665;28;19908;-73
2023/03/20 10:06:15;;;;;;;;;;;17.70;5.00;;;;;;5053328;28;19931;-74
2023/03/20 10:08:41;;;;;;;;;;;17.10;8.30;;;;;;5054591;28;20399;-74
2023/03/20 10:11:25;;;;;;;;;;;16.80;24.20;;;;;;5054711;28;19909;-74
2023/03/20 10:14:06;;;;;;;;;;;16.70;23.00;;;;;;5054711;28;19959;-75
2023/03/20 10:16:39;;;;;;;;;;;16.80;28.80;;;;;;5054724;28;19948;-74
2023/03/20 10:19:23;;;;;;;;;;;16.90;28.90;;;;;;5054815;28;19935;-75
2023/03/20 10:21:52;;;;;;;;;;;17.40;19.40;;;;;;5054375;28;19909;-74
2023/03/20 10:24:36;;;;;;;;;;;17.40;24.30;;;;;;5054274;28;19931;-73
2023/03/20 10:27:06;;;;;;;;;;;17.10;23.70;;;;;;5054271;28;19909;-75
2023/03/20 10:29:37;;;;;;;;;;;16.80;24.60;;;;;;5054256;28;19909;-75
2023/03/20 10:32:16;;;;;;;;;;;17.40;30.50;;;;;;5054237;28;20019;-75
2023/03/20 10:34:47;;;;;;;;;;;17.20;22.00;;;;;;5054351;28;20361;-74
2023/03/20 10:37:16;;;;;;;;;;;16.70;31.90;;;;;;5054206;28;19912;-76
2023/03/20 10:39:49;;;;;;;;;;;16.50;30.90;;;;;;5053812;28;20408;-74
2023/03/20 10:42:27;;;;;;;;;;;16.60;46.40;;;;;;5054041;28;19975;-74
2023/03/20 10:45:13;;;;;;;;;;;16.70;33.90;;;;;;5053919;28;19913;-75
2023/03/20 10:47:41;;;;;;;;;;;17.30;32.70;;;;;;5053287;28;19948;-73
2023/03/20 10:50:10;;;;;;;;;;;17.30;18.00;;;;;;5053855;28;19932;-74
2023/03/20 10:52:38;;;;;;;;;;;17.50;14.80;;;;;;5053732;28;19935;-75
2023/03/20 10:55:06;;;;;;;;;;;17.80;18.80;;;;;;5054228;28;19975;-74
2023/03/20 10:57:34;;;;;;;;;;;18.00;13.90;;;;;;5054005;28;19909;-74
2023/03/20 11:00:00;;;;;;;;;;;17.60;12.10;;;;;;5052967;28;19959;-74
2023/03/20 11:02:29;;;;;;;;;;;18.10;16.30;;;;;;5053719;28;19909;-75
2023/03/20 11:04:55;;;;;;;;;;;17.70;15.90;;;;;;5054131;28;19955;-76
2023/03/20 11:07:20;;;;;;;;;;;18.50;12.60;;;;;;5053652;28;19909;-75
2023/03/20 11:10:06;;;;;;;;;;;19.00;2.00;;;;;;5053755;28;19912;-74
2023/03/20 11:12:33;;;;;;;;;;;18.30;6.30;;;;;;5053597;28;19913;-73
2023/03/20 11:14:59;;;;;;;;;;;17.90;11.00;;;;;;5053468;28;20362;-75
2023/03/20 11:17:27;;;;;;;;;;;17.40;9.60;;;;;;5053643;28;19912;-74
2023/03/20 11:19:53;;;;;;;;;;;17.20;15.50;;;;;;5069014;28;20321;-75
2023/03/20 11:22:18;;;;;;;;;;;16.90;19.40;;;;;;5053516;28;19924;-73
2023/03/20 11:24:45;;;;;;;;;;;17.30;18.10;;;;;;5053786;28;19932;-74
2023/03/20 11:27:16;;;;;;;;;;;17.40;13.00;;;;;;5053638;28;19908;-75
2023/03/20 11:29:45;;;;;;;;;;;17.50;11.10;;;;;;5053643;28;19909;-73
2023/03/20 11:32:25;;;;;;;;;;;18.30;7.00;;;;;;5053449;28;19920;-74
2023/03/20 11:34:56;;;;;;;;;;;19.10;1.00;;;;;;5053401;28;19909;-75
2023/03/20 11:37:27;;;;;;;;;;;20.20;1.00;;;;;;5053838;28;19908;-73
2023/03/20 11:39:56;;;;;;;;;;;19.90;1.00;;;;;;5053244;28;19925;-75
2023/03/20 11:42:23;;;;;;;;;;;20.40;1.00;;;;;;5053296;28;19915;-74
2023/03/20 11:44:55;;;;;;;;;;;20.30;1.00;;;;;;5053345;28;19909;-76
2023/03/20 11:47:24;;;;;;;;;;;20.50;1.00;;;;;;5053620;28;20325;-73
2023/03/20 11:49:57;;;;;;;;;;;20.20;1.00;;;;;;5053266;28;19912;-74
2023/03/20 11:52:27;;;;;;;;;;;19.30;1.00;;;;;;5053190;28;19963;-74
2023/03/20 11:54:55;;;;;;;;;;;19.80;1.00;;;;;;5052078;28;19917;-75
2023/03/20 11:57:35;;;;;;;;;;;19.50;1.00;;;;;;5053286;28;19915;-75
2023/03/20 12:00:06;;;;;;;;;;;19.40;1.00;;;;;;5053356;28;19909;-76
2023/03/20 12:02:32;;;;;;;;;;;19.80;1.00;;;;;;5053221;28;19909;-76
2023/03/20 12:05:01;;;;;;;;;;;21.50;1.00;;;;;;5053122;28;20388;-75
2023/03/20 12:07:34;;;;;;;;;;;21.20;1.00;;;;;;5053254;28;19916;-74
2023/03/20 12:10:03;;;;;;;;;;;20.00;1.00;;;;;;5054046;28;19912;-75
2023/03/20 12:12:28;;;;;;;;;;;19.20;1.00;;;;;;5056759;28;19917;-75
2023/03/20 12:15:02;;;;;;;;;;;19.40;1.00;;;;;;5056729;28;19948;-76
2023/03/20 12:17:34;;;;;;;;;;;19.10;1.00;;;;;;5056931;28;20376;-75
2023/03/20 12:20:03;;;;;;;;;;;18.90;1.00;;;;;;5056748;28;19915;-74
2023/03/20 12:22:38;;;;;;;;;;;18.80;1.00;;;;;;5056695;28;19909;-75
2023/03/20 12:25:36;;;;;;;;;;;19.70;1.00;;;;;;5056602;28;20269;-75
2023/03/20 12:28:12;;;;;;;;;;;19.70;1.00;;;;;;5012386;28;19909;-76
2023/03/20 12:30:56;;;;;;;;;;;20.30;1.00;;;;;;5054935;28;20404;-75
2023/03/20 12:33:38;;;;;;;;;;;20.50;1.00;;;;;;5056493;28;19912;-75
2023/03/20 12:36:10;;;;;;;;;;;21.30;1.00;;;;;;5056314;28;19909;-74
2023/03/20 12:38:35;;;;;;;;;;;23.60;1.00;;;;;;5056496;28;19916;-75
2023/03/20 12:41:27;;;;;;;;;;;24.10;1.00;;;;;;5055860;28;19921;-75
2023/03/20 12:44:07;;;;;;;;;;;22.40;1.00;;;;;;5052183;28;20388;-76
2023/03/20 12:46:32;;;;;;;;;;;20.80;1.00;;;;;;5056353;28;19909;-76
2023/03/20 12:49:07;;;;;;;;;;;20.10;1.00;;;;;;5056095;28;20383;-75
2023/03/20 12:51:51;;;;;;;;;;;21.10;1.00;;;;;;5056388;28;19916;-74
2023/03/20 12:54:35;;;;;;;;;;;21.10;1.00;;;;;;5056077;28;20380;-75
2023/03/20 12:57:06;;;;;;;;;;;21.80;1.00;;;;;;5055937;28;19916;-76
2023/03/20 12:59:52;;;;;;;;;;;21.10;1.00;;;;;;5055781;28;19932;-74
2023/03/20 13:02:21;;;;;;;;;;;19.70;1.00;;;;;;5055263;28;19909;-76
2023/03/20 13:04:57;;;;;;;;;;;18.40;1.00;;;;;;5055833;28;20438;-74
2023/03/20 13:07:35;;;;;;;;;;;17.70;1.00;;;;;;5054677;28;19979;-76
2023/03/20 13:10:01;;;;;;;;;;;17.50;5.90;;;;;;5055833;28;19909;-75
2023/03/20 13:12:38;;;;;;;;;;;17.50;17.10;;;;;;5055555;28;20391;-74
2023/03/20 13:15:13;;;;;;;;;;;17.40;13.60;;;;;;5055830;28;19916;-75
2023/03/20 13:17:45;;;;;;;;;;;17.00;15.10;;;;;;5055685;28;19909;-76
2023/03/20 13:20:13;;;;;;;;;;;16.70;24.80;;;;;;5055679;28;19915;-73
2023/03/20 13:22:39;;;;;;;;;;;16.70;22.00;;;;;;5054659;28;19997;-75
2023/03/20 13:25:07;;;;;;;;;;;16.80;37.90;;;;;;5055435;28;19951;-74
2023/03/20 13:27:33;;;;;;;;;;;16.50;31.10;;;;;;5054119;28;19912;-74
2023/03/20 13:30:19;;;;;;;;;;;16.60;27.70;;;;;;5055367;28;20002;-76
2023/03/20 13:33:08;;;;;;;;;;;16.60;32.70;;;;;;5040971;28;19913;-75
2023/03/20 13:35:38;;;;;;;;;;;16.70;28.60;;;;;;5055568;28;19913;-75
2023/03/20 13:38:16;;;;;;;;;;;16.50;28.00;;;;;;5055309;28;19916;-74
2023/03/20 13:40:43;;;;;;;;;;;16.50;26.50;;;;;;5054974;28;20344;-75
2023/03/20 13:43:20;;;;;;;;;;;16.40;27.50;;;;;;5055176;28;19913;-74
2023/03/20 13:45:47;;;;;;;;;;;16.80;30.70;;;;;;5055158;28;19908;-75
2023/03/20 13:48:19;;;;;;;;;;;16.90;20.80;;;;;;5055064;28;19913;-74
2023/03/20 13:50:54;;;;;;;;;;;16.80;17.50;;;;;;5055205;28;19996;-74
2023/03/20 13:53:37;;;;;;;;;;;16.90;17.90;;;;;;5054834;28;20381;-74
2023/03/20 13:56:19;;;;;;;;;;;16.90;21.40;;;;;;5055124;28;19916;-74
2023/03/20 13:58:45;;;;;;;;;;;17.30;23.60;;;;;;5055056;28;19913;-74
2023/03/20 14:01:16;;;;;;;;;;;17.20;16.90;;;;;;5054748;28;20301;-75
2023/03/20 14:03:45;;;;;;;;;;;17.30;13.60;;;;;;5054812;28;19944;-74
2023/03/20 14:06:29;;;;;;;;;;;17.10;15.30;;;;;;5054871;28;20285;-75
2023/03/20 14:08:54;;;;;;;;;;;17.20;13.50;;;;;;5053329;28;20337;-74
2023/03/20 14:11:20;;;;;;;;;;;17.10;14.40;;;;;;5054310;28;19955;-76
2023/03/20 14:13:48;;;;;;;;;;;17.20;17.70;;;;;;5054415;28;19960;-74
2023/03/20 14:16:17;;;;;;;;;;;16.80;19.40;;;;;;5054482;28;19952;-74
2023/03/20 14:18:44;;;;;;;;;;;16.60;19.20;;;;;;5054441;28;19915;-73
2023/03/20 14:21:14;;;;;;;;;;;16.40;25.90;;;;;;5054560;28;19916;-75
2023/03/20 14:24:09;;;;;;;;;;;16.50;31.60;;;;;;5069644;28;20373;-75
2023/03/20 14:26:36;;;;;;;;;;;16.50;34.10;;;;;;5036876;28;19909;-74
2023/03/20 14:29:08;;;;;;;;;;;16.50;44.70;;;;;;5054278;28;19959;-75
2023/03/20 14:31:37;;;;;;;;;;;16.30;31.60;;;;;;5054120;28;19967;-74
2023/03/20 14:34:05;;;;;;;;;;;16.30;39.40;;;;;;5054385;28;19970;-74
2023/03/20 14:36:45;;;;;;;;;;;16.20;43.10;;;;;;5054110;28;19916;-75